SKVP/VUP METAR and TAF weather

Enter ICAO airport designator
Station Type Date Time Source
SKVP METAR 2019/07/15 20:00 UTC NOAA

SKVP 152000Z 05006KT 9999 FEW020 37/18 A2981


Station Type Date Time Source
SKVP Decoded METAR 2019/07/15 20:00 UTC NOAA

Valledupar / Alfonso Lopez, Colombia (SKVP) 10-26N 073-15W
Jul 15, 2019 - 04:00 PM EDT / 2019.07.15 2000 UTC
Wind: from the NE (050 degrees) at 7 MPH (6 KT):0
Visibility: greater than 7 mile(s):0
Sky conditions: mostly clear
Temperature: 98 F (37 C)
Heat index: 100.0 F (37.8 C):1
Dew Point: 64 F (18 C)
Relative Humidity: 32%
Pressure (altimeter): 29.81 in. Hg (1009 hPa)
ob: SKVP 152000Z 05006KT 9999 FEW020 37/18 A2981
cycle: 20

Station Type Date Time Source
SKVP TAF UTC NOAA

Error!

Example: see airport list